Time;durP1;ratioP1;P1;durP2;ratioP2;P2;SDS_P1;SDS_P2;PMS_P1;PMS_P2;Temp;Humidity;BMP_temperature;BMP_pressure;BME280_temperature;BME280_humidity;BME280_pressure;Samples;Min_cycle;Max_cycle;Signal;HPM_P1;HPM_P2
2023/05/17 00:01:39;;;;;;;11.93;3.40;;;;;;;11.53;100.00;101808.94;5047378;28;20120;-77
2023/05/17 00:04:08;;;;;;;10.82;3.70;;;;;;;11.56;100.00;101814.97;5047668;28;20041;-77
2023/05/17 00:06:36;;;;;;;9.57;3.13;;;;;;;11.36;100.00;101814.66;5039180;28;20033;-77
2023/05/17 00:09:05;;;;;;;6.47;3.05;;;;;;;11.17;100.00;101810.75;5049145;28;20037;-77
2023/05/17 00:11:32;;;;;;;13.23;3.25;;;;;;;11.00;100.00;101823.47;5051474;28;20036;-77
2023/05/17 00:14:01;;;;;;;12.30;3.85;;;;;;;10.91;100.00;101816.16;5042419;28;20450;-77
2023/05/17 00:16:27;;;;;;;9.20;3.70;;;;;;;10.88;100.00;101811.09;5039018;28;20108;-77
2023/05/17 00:18:55;;;;;;;12.95;3.40;;;;;;;10.95;100.00;101811.50;5047839;28;20025;-77
2023/05/17 00:21:23;;;;;;;9.93;3.10;;;;;;;10.90;100.00;101812.69;5044595;28;20057;-76
2023/05/17 00:23:50;;;;;;;10.07;3.40;;;;;;;10.96;100.00;101813.22;5037828;28;20037;-77
2023/05/17 00:26:19;;;;;;;7.45;3.05;;;;;;;10.93;100.00;101808.97;5044858;28;20115;-77
2023/05/17 00:28:46;;;;;;;10.98;3.50;;;;;;;10.97;100.00;101812.25;5045255;28;20396;-77
2023/05/17 00:31:14;;;;;;;9.85;3.90;;;;;;;10.95;100.00;101816.78;5047182;28;20108;-77
2023/05/17 00:33:42;;;;;;;7.10;3.10;;;;;;;10.99;100.00;101811.16;5045869;28;20044;-77
2023/05/17 00:36:10;;;;;;;11.32;3.67;;;;;;;10.94;100.00;101807.19;5028522;28;20041;-77
2023/05/17 00:38:40;;;;;;;12.98;3.15;;;;;;;10.97;100.00;101821.03;5025995;28;20151;-77
2023/05/17 00:41:11;;;;;;;9.18;3.35;;;;;;;10.87;100.00;101820.00;5043074;28;20045;-77
2023/05/17 00:43:41;;;;;;;5.85;3.10;;;;;;;10.76;100.00;101816.34;5058218;28;20385;-77
2023/05/17 00:46:11;;;;;;;10.45;3.13;;;;;;;10.75;100.00;101819.13;5042565;28;20111;-77
2023/05/17 00:48:41;;;;;;;6.80;2.95;;;;;;;10.75;100.00;101822.59;5037348;28;20022;-76
2023/05/17 00:51:09;;;;;;;11.32;3.67;;;;;;;10.71;100.00;101820.28;5041756;28;20037;-76
2023/05/17 00:53:39;;;;;;;5.88;2.90;;;;;;;10.71;100.00;101821.13;5043020;28;20080;-77
2023/05/17 00:56:09;;;;;;;10.75;2.90;;;;;;;10.67;100.00;101819.66;5022837;28;20142;-77
2023/05/17 00:58:39;;;;;;;8.68;3.35;;;;;;;10.66;100.00;101820.59;5036787;28;20091;-77
2023/05/17 01:01:07;;;;;;;11.98;3.13;;;;;;;10.63;100.00;101821.69;5041038;28;20051;-77
2023/05/17 01:03:34;;;;;;;10.32;3.10;;;;;;;10.66;100.00;101824.09;5042336;28;20108;-77
2023/05/17 01:06:02;;;;;;;9.02;2.70;;;;;;;10.63;100.00;101826.97;5038390;28;20033;-76
2023/05/17 01:08:31;;;;;;;9.20;2.63;;;;;;;10.62;100.00;101832.38;5024219;28;20067;-76
2023/05/17 01:11:18;;;;;;;13.98;2.88;;;;;;;10.58;100.00;101831.75;5045335;28;20058;-76
2023/05/17 01:14:05;;;;;;;6.22;2.85;;;;;;;10.55;100.00;101829.31;5044227;28;20043;-77
2023/05/17 01:16:36;;;;;;;;;;;;;;;10.41;100.00;101831.13;5055150;28;20056;-77
2023/05/17 01:19:22;;;;;;;9.68;3.05;;;;;;;10.50;100.00;101828.78;5028763;28;19913;-76
2023/05/17 01:22:07;;;;;;;8.80;2.70;;;;;;;10.46;100.00;101830.84;5045006;28;20032;-76
2023/05/17 01:25:07;;;;;;;12.75;3.75;;;;;;;10.35;100.00;101828.88;5039574;28;20037;-77
2023/05/17 01:27:41;;;;;;;6.72;2.90;;;;;;;10.25;100.00;101825.22;5046918;28;20029;-76
2023/05/17 01:30:13;;;;;;;9.48;3.75;;;;;;;10.25;100.00;101833.16;5039494;28;20052;-76
2023/05/17 01:32:46;;;;;;;11.77;4.00;;;;;;;10.22;100.00;101828.09;5040480;28;20409;-76
2023/05/17 01:35:15;;;;;;;7.43;3.20;;;;;;;10.21;100.00;101842.25;5045880;28;20040;-77
2023/05/17 01:37:42;;;;;;;8.43;2.92;;;;;;;10.16;100.00;101837.28;5038112;28;20048;-77
2023/05/17 01:40:13;;;;;;;8.98;3.50;;;;;;;10.14;100.00;101832.13;5039765;28;20071;-76
2023/05/17 01:42:43;;;;;;;8.95;3.67;;;;;;;10.15;100.00;101825.00;5044187;28;20032;-76
2023/05/17 01:45:17;;;;;;;10.52;3.03;;;;;;;10.15;100.00;101832.94;5029430;28;20618;-76
2023/05/17 01:48:08;;;;;;;11.88;3.15;;;;;;;10.17;100.00;101836.34;5043769;28;20736;-77
2023/05/17 01:50:39;;;;;;;9.25;3.03;;;;;;;10.13;100.00;101837.50;5039014;28;20033;-76
2023/05/17 01:53:17;;;;;;;9.75;3.42;;;;;;;10.09;100.00;101833.38;5042284;28;20041;-77
2023/05/17 01:55:56;;;;;;;10.70;3.22;;;;;;;10.03;100.00;101838.13;5039646;28;20099;-77
2023/05/17 01:58:29;;;;;;;13.65;3.35;;;;;;;9.99;100.00;101834.00;5037637;28;20073;-77
2023/05/17 02:01:00;;;;;;;9.95;3.20;;;;;;;9.98;100.00;101845.53;5019749;28;20044;-76
2023/05/17 02:03:29;;;;;;;10.70;3.05;;;;;;;9.89;100.00;101839.06;5038220;28;20032;-77
2023/05/17 02:05:57;;;;;;;9.82;3.25;;;;;;;9.78;100.00;101845.09;5046405;28;20033;-76
2023/05/17 02:08:24;;;;;;;6.93;2.65;;;;;;;9.66;100.00;101841.50;5047181;28;20089;-77
2023/05/17 02:10:52;;;;;;;13.27;3.30;;;;;;;9.66;100.00;101843.28;5054712;28;20029;-77
2023/05/17 02:13:20;;;;;;;11.95;3.85;;;;;;;9.62;100.00;101837.38;5026958;28;20115;-76
2023/05/17 02:15:49;;;;;;;8.07;2.88;;;;;;;9.63;100.00;101839.06;5039325;28;20036;-77
2023/05/17 02:18:20;;;;;;;14.57;3.75;;;;;;;9.59;100.00;101834.09;5035022;28;20041;-76
2023/05/17 02:20:50;;;;;;;11.88;3.65;;;;;;;9.57;100.00;101831.56;5038100;28;20025;-76
2023/05/17 02:23:19;;;;;;;11.77;3.22;;;;;;;9.58;100.00;101837.66;5029676;28;20493;-77
2023/05/17 02:25:47;;;;;;;12.70;3.55;;;;;;;9.58;100.00;101829.75;5038530;28;20036;-77
2023/05/17 02:28:17;;;;;;;11.38;2.95;;;;;;;9.57;100.00;101833.34;5044694;28;20056;-76
2023/05/17 02:30:46;;;;;;;7.85;2.70;;;;;;;9.60;100.00;101831.38;5043606;28;20033;-76
2023/05/17 02:33:16;;;;;;;8.13;2.70;;;;;;;9.60;100.00;101822.59;5040803;28;20037;-77
2023/05/17 02:35:46;;;;;;;7.85;3.10;;;;;;;9.59;100.00;101826.19;5046986;28;20043;-77
2023/05/17 02:38:16;;;;;;;7.10;2.83;;;;;;;9.60;100.00;101830.50;5048501;28;20049;-76
2023/05/17 02:40:46;;;;;;;8.68;2.90;;;;;;;9.56;100.00;101829.84;5046169;28;20091;-77
2023/05/17 02:43:15;;;;;;;10.27;3.75;;;;;;;9.48;100.00;101827.75;5038427;28;20045;-77
2023/05/17 02:45:44;;;;;;;9.23;2.90;;;;;;;9.38;100.00;101816.13;5049563;28;20037;-76
2023/05/17 02:48:13;;;;;;;5.72;2.80;;;;;;;9.39;100.00;101816.00;5036727;28;20564;-76
2023/05/17 02:50:40;;;;;;;12.80;2.60;;;;;;;9.41;100.00;101816.75;5044990;28;20039;-76
2023/05/17 02:53:08;;;;;;;10.30;2.80;;;;;;;9.38;100.00;101816.94;5043936;28;20032;-77
2023/05/17 02:55:36;;;;;;;12.05;3.50;;;;;;;9.27;100.00;101815.03;5039306;28;20025;-76
2023/05/17 02:58:06;;;;;;;5.68;2.67;;;;;;;9.32;100.00;101808.63;5039047;28;20457;-77
2023/05/17 03:00:36;;;;;;;9.10;3.75;;;;;;;9.34;100.00;101812.84;5043165;28;20033;-77
2023/05/17 03:03:06;;;;;;;9.77;3.08;;;;;;;9.33;100.00;101811.16;5055897;28;20044;-76
2023/05/17 03:05:36;;;;;;;8.13;3.50;;;;;;;9.25;100.00;101809.00;5045961;28;20056;-77
2023/05/17 03:08:06;;;;;;;8.63;2.85;;;;;;;9.17;100.00;101808.69;5043548;28;20036;-77
2023/05/17 03:10:36;;;;;;;6.13;3.00;;;;;;;9.14;100.00;101808.88;5044690;28;20029;-77
2023/05/17 03:13:06;;;;;;;9.50;3.20;;;;;;;9.15;100.00;101813.19;5046689;28;20519;-76
2023/05/17 03:15:38;;;;;;;10.23;2.80;;;;;;;9.13;100.00;101810.66;5032106;28;20040;-76
2023/05/17 03:18:06;;;;;;;11.05;3.20;;;;;;;9.11;100.00;101812.53;5043089;28;20032;-76
2023/05/17 03:20:38;;;;;;;6.53;2.67;;;;;;;9.12;100.00;101808.97;5049070;28;20033;-76
2023/05/17 03:23:08;;;;;;;10.95;2.88;;;;;;;9.12;100.00;101805.50;5046119;28;20091;-76
2023/05/17 03:25:46;;;;;;;5.28;2.72;;;;;;;9.08;100.00;101804.00;5037274;28;20108;-77
2023/05/17 03:28:14;;;;;;;7.57;2.97;;;;;;;9.03;100.00;101806.94;5044336;28;20401;-75
2023/05/17 03:30:42;;;;;;;6.78;2.50;;;;;;;9.05;100.00;101803.25;5047897;28;20040;-75
2023/05/17 03:33:10;;;;;;;7.50;3.05;;;;;;;9.01;100.00;101800.91;5040925;28;20029;-75
2023/05/17 03:35:40;;;;;;;9.73;3.28;;;;;;;9.01;100.00;101798.28;5047505;28;20116;-74
2023/05/17 03:38:10;;;;;;;6.90;3.03;;;;;;;9.02;100.00;101810.50;5029035;28;20047;-76
2023/05/17 03:40:40;;;;;;;9.25;3.22;;;;;;;9.04;100.00;101811.28;5042024;28;20041;-76
2023/05/17 03:43:07;;;;;;;10.77;3.05;;;;;;;9.03;100.00;101810.41;5031180;28;20055;-76
2023/05/17 03:45:36;;;;;;;10.57;3.90;;;;;;;8.96;100.00;101819.69;5045336;28;20469;-76
2023/05/17 03:48:06;;;;;;;5.85;3.03;;;;;;;8.95;100.00;101811.88;5031018;28;20036;-76
2023/05/17 03:50:33;;;;;;;9.77;3.08;;;;;;;8.95;100.00;101802.16;5033869;28;20038;-76
2023/05/17 03:53:01;;;;;;;8.88;2.78;;;;;;;8.96;100.00;101803.84;5043890;28;20025;-77
2023/05/17 03:55:31;;;;;;;6.57;3.40;;;;;;;8.95;100.00;101801.31;5060787;28;20108;-76
2023/05/17 03:58:01;;;;;;;8.90;3.47;;;;;;;8.93;100.00;101801.44;5048753;28;20048;-74
2023/05/17 04:00:32;;;;;;;7.85;3.25;;;;;;;8.97;100.00;101805.53;5041542;28;20033;-75
2023/05/17 04:03:06;;;;;;;10.45;3.45;;;;;;;8.96;100.00;101806.50;5043856;28;20039;-76
2023/05/17 04:05:34;;;;;;;7.85;4.05;;;;;;;8.95;100.00;101802.16;5020109;28;20045;-77
2023/05/17 04:08:02;;;;;;;9.25;3.65;;;;;;;8.99;100.00;101810.72;5042185;28;20486;-76
2023/05/17 04:10:30;;;;;;;8.25;3.03;;;;;;;8.97;100.00;101802.06;5044773;28;20025;-77
2023/05/17 04:13:00;;;;;;;7.93;3.15;;;;;;;8.95;100.00;101803.97;5042958;28;20611;-76
2023/05/17 04:15:30;;;;;;;5.55;3.08;;;;;;;8.88;100.00;101801.72;5047311;28;20029;-76
2023/05/17 04:17:59;;;;;;;7.75;3.03;;;;;;;8.79;100.00;101794.41;5046226;28;20033;-77
2023/05/17 04:20:28;;;;;;;6.50;2.83;;;;;;;8.79;100.00;101797.88;5047034;28;20056;-77
2023/05/17 04:22:56;;;;;;;16.35;3.67;;;;;;;8.80;100.00;101794.31;5046219;28;20033;-77
2023/05/17 04:25:26;;;;;;;7.82;3.55;;;;;;;8.73;100.00;101800.91;5040370;28;20072;-77
2023/05/17 04:27:54;;;;;;;9.40;3.15;;;;;;;8.68;100.00;101800.34;5048844;28;20994;-77
2023/05/17 04:30:23;;;;;;;5.65;2.40;;;;;;;8.63;100.00;101800.66;5047807;28;20029;-76
2023/05/17 04:32:54;;;;;;;6.47;3.13;;;;;;;8.61;100.00;101788.53;5042833;28;20553;-76
2023/05/17 04:35:24;;;;;;;13.10;3.40;;;;;;;8.54;100.00;101785.38;5027743;28;20037;-77
2023/05/17 04:37:55;;;;;;;8.70;3.28;;;;;;;8.45;100.00;101776.28;5031435;28;20503;-76
2023/05/17 04:40:23;;;;;;;7.15;3.05;;;;;;;8.28;100.00;101778.19;5041180;28;20044;-76
2023/05/17 04:42:52;;;;;;;11.30;3.10;;;;;;;8.28;100.00;101782.63;5041514;28;20036;-76
2023/05/17 04:45:20;;;;;;;5.18;2.50;;;;;;;8.28;100.00;101783.47;5034471;28;20025;-76
2023/05/17 04:47:51;;;;;;;8.43;3.10;;;;;;;8.34;100.00;101800.69;5041917;28;20117;-76
2023/05/17 04:50:19;;;;;;;8.40;2.53;;;;;;;8.34;100.00;101810.38;5045780;28;20037;-76
2023/05/17 04:52:48;;;;;;;6.50;3.00;;;;;;;8.35;100.00;101812.03;5030307;28;20029;-76
2023/05/17 04:55:15;;;;;;;7.45;3.10;;;;;;;8.34;100.00;101807.72;5065051;28;20068;-77
2023/05/17 04:57:46;;;;;;;6.53;2.70;;;;;;;8.39;100.00;101810.94;5043847;28;20056;-76
2023/05/17 05:00:19;;;;;;;5.68;2.65;;;;;;;8.40;100.00;101821.38;5047928;28;20115;-76
2023/05/17 05:02:54;;;;;;;4.72;2.67;;;;;;;8.43;100.00;101813.28;5030669;28;20079;-77
2023/05/17 05:05:23;;;;;;;5.70;2.50;;;;;;;8.45;100.00;101818.44;5044312;28;20049;-77
2023/05/17 05:07:54;;;;;;;7.05;3.05;;;;;;;8.47;100.00;101811.31;5042263;28;20040;-77
2023/05/17 05:10:24;;;;;;;7.18;2.95;;;;;;;8.45;100.00;101813.19;5047366;28;20040;-76
2023/05/17 05:12:54;;;;;;;4.32;2.33;;;;;;;8.49;100.00;101813.84;5046412;28;20051;-76
2023/05/17 05:15:25;;;;;;;5.55;2.78;;;;;;;8.47;100.00;101829.75;5044760;28;20076;-76
2023/05/17 05:17:58;;;;;;;6.35;2.47;;;;;;;8.47;100.00;101832.38;5038668;28;20391;-77
2023/05/17 05:20:26;;;;;;;6.70;2.95;;;;;;;8.43;100.00;101834.34;5035903;28;20033;-76
2023/05/17 05:22:54;;;;;;;5.85;2.80;;;;;;;8.46;100.00;101830.69;5043853;28;20047;-76
2023/05/17 05:25:21;;;;;;;6.60;2.92;;;;;;;8.46;100.00;101828.03;5040656;28;20025;-76
2023/05/17 05:27:50;;;;;;;5.38;2.60;;;;;;;8.55;100.00;101826.66;5048749;28;20102;-76
2023/05/17 05:30:21;;;;;;;8.77;2.90;;;;;;;8.58;100.00;101838.78;5041615;28;20417;-76
2023/05/17 05:32:50;;;;;;;7.18;2.88;;;;;;;8.61;100.00;101843.88;5036241;28;20049;-76
2023/05/17 05:35:19;;;;;;;6.55;2.60;;;;;;;8.64;100.00;101847.16;5038972;28;20400;-76
2023/05/17 05:37:47;;;;;;;7.82;3.15;;;;;;;8.64;100.00;101846.31;5047602;28;20429;-76
2023/05/17 05:40:14;;;;;;;5.50;2.85;;;;;;;8.64;100.00;101844.53;5031013;28;20032;-76
2023/05/17 05:42:42;;;;;;;8.73;3.15;;;;;;;8.56;100.00;101850.28;5047690;28;20044;-76
2023/05/17 05:45:11;;;;;;;6.32;3.08;;;;;;;8.64;100.00;101859.50;5043003;28;20029;-77
2023/05/17 05:47:40;;;;;;;6.15;2.95;;;;;;;8.68;100.00;101859.19;5046776;28;20029;-76
2023/05/17 05:50:09;;;;;;;4.88;3.00;;;;;;;8.68;100.00;101859.19;5040773;28;20045;-77
2023/05/17 05:52:37;;;;;;;4.40;2.63;;;;;;;8.69;100.00;101857.41;5027966;28;20366;-76
2023/05/17 05:55:06;;;;;;;5.90;3.00;;;;;;;8.77;100.00;101868.34;5029942;28;20488;-76
2023/05/17 05:57:34;;;;;;;6.10;3.25;;;;;;;8.74;100.00;101868.53;5047153;28;20052;-77
2023/05/17 06:00:03;;;;;;;8.45;3.50;;;;;;;8.81;100.00;101869.81;5030789;28;20041;-76
2023/05/17 06:02:40;;;;;;;6.43;2.80;;;;;;;8.91;100.00;101877.13;5045479;28;20037;-76
2023/05/17 06:05:09;;;;;;;7.82;2.85;;;;;;;8.94;100.00;101879.59;5044188;28;20036;-77
2023/05/17 06:07:37;;;;;;;6.28;2.70;;;;;;;8.95;100.00;101880.44;5043486;28;20029;-76
2023/05/17 06:10:06;;;;;;;6.22;2.78;;;;;;;9.01;100.00;101885.31;5039063;28;20040;-77
2023/05/17 06:12:33;;;;;;;3.35;2.53;;;;;;;8.95;100.00;101875.16;5043335;28;20033;-77
2023/05/17 06:15:02;;;;;;;6.45;3.05;;;;;;;9.00;100.00;101875.72;5035090;28;20041;-77
2023/05/17 06:17:29;;;;;;;8.27;3.08;;;;;;;9.05;100.00;101882.38;5048408;28;20029;-77
2023/05/17 06:19:58;;;;;;;8.88;2.95;;;;;;;9.18;100.00;101871.03;5034364;28;20137;-77
2023/05/17 06:22:25;;;;;;;7.95;2.72;;;;;;;9.28;100.00;101864.22;5043176;28;20033;-77
2023/05/17 06:24:52;;;;;;;12.23;3.17;;;;;;;9.45;100.00;101862.25;5031899;28;20034;-77
2023/05/17 06:27:20;;;;;;;13.35;3.42;;;;;;;9.53;100.00;101873.16;5048176;28;20032;-77
2023/05/17 06:29:48;;;;;;;10.57;3.40;;;;;;;9.63;100.00;101877.81;5041856;28;20088;-77
2023/05/17 06:32:15;;;;;;;8.57;3.45;;;;;;;9.68;100.00;101881.81;5041047;28;20029;-76
2023/05/17 06:34:44;;;;;;;6.38;3.58;;;;;;;9.75;100.00;101870.84;5041517;28;20107;-77
2023/05/17 06:37:12;;;;;;;4.70;2.75;;;;;;;9.77;100.00;101875.09;5045587;28;20044;-77
2023/05/17 06:39:39;;;;;;;9.43;3.90;;;;;;;9.83;100.00;101873.81;5045990;28;20029;-77
2023/05/17 06:42:07;;;;;;;7.72;3.25;;;;;;;9.89;100.00;101883.16;5037522;28;20048;-77
2023/05/17 06:44:37;;;;;;;9.35;3.47;;;;;;;9.94;100.00;101881.03;5042819;28;20111;-76
2023/05/17 06:47:04;;;;;;;9.32;3.35;;;;;;;9.99;100.00;101884.19;5040700;28;20095;-77
2023/05/17 06:49:32;;;;;;;10.20;3.33;;;;;;;10.07;100.00;101885.47;5045678;28;20112;-77
2023/05/17 06:52:02;;;;;;;6.35;3.30;;;;;;;10.11;100.00;101885.16;5044073;28;20669;-77
2023/05/17 06:54:30;;;;;;;8.60;3.13;;;;;;;10.22;100.00;101891.50;5046844;28;20033;-77
2023/05/17 06:57:02;;;;;;;10.10;3.50;;;;;;;10.31;100.00;101885.56;5031220;28;20064;-77
2023/05/17 06:59:32;;;;;;;12.40;4.03;;;;;;;10.40;100.00;101884.09;5026458;28;20098;-77
2023/05/17 07:02:01;;;;;;;7.88;3.67;;;;;;;10.45;100.00;101884.59;5046668;28;20120;-76
2023/05/17 07:04:32;;;;;;;12.43;4.00;;;;;;;10.48;100.00;101876.47;5045468;28;20040;-77
2023/05/17 07:07:02;;;;;;;9.43;3.83;;;;;;;10.54;100.00;101885.81;5035187;28;20033;-77
2023/05/17 07:09:31;;;;;;;9.82;4.03;;;;;;;10.64;100.00;101886.81;5043461;28;20087;-77
2023/05/17 07:12:00;;;;;;;9.38;3.90;;;;;;;10.72;100.00;101891.56;5040128;28;20030;-77
2023/05/17 07:14:28;;;;;;;7.68;3.75;;;;;;;10.81;100.00;101890.09;5047191;28;20170;-77
2023/05/17 07:16:58;;;;;;;10.90;3.22;;;;;;;10.96;100.00;101888.13;5043175;28;20025;-77
2023/05/17 07:19:28;;;;;;;9.68;3.65;;;;;;;11.12;100.00;101884.34;5031969;28;20041;-77
2023/05/17 07:21:57;;;;;;;10.93;4.05;;;;;;;11.31;100.00;101880.38;5039727;28;20041;-77
2023/05/17 07:24:26;;;;;;;9.85;4.07;;;;;;;11.44;100.00;101886.44;5049420;28;20036;-77
2023/05/17 07:26:54;;;;;;;11.48;3.78;;;;;;;11.58;100.00;101873.97;5049686;28;20025;-77
2023/05/17 07:29:23;;;;;;;8.73;4.15;;;;;;;11.65;100.00;101873.38;5043443;28;20039;-77
2023/05/17 07:31:51;;;;;;;10.70;4.07;;;;;;;11.73;100.00;101877.25;5047615;28;20033;-77
2023/05/17 07:34:20;;;;;;;11.70;3.72;;;;;;;11.83;100.00;101867.66;5048429;28;20040;-76
2023/05/17 07:36:49;;;;;;;11.50;3.88;;;;;;;11.97;100.00;101873.69;5046145;28;20024;-77
2023/05/17 07:39:17;;;;;;;10.05;3.67;;;;;;;12.06;100.00;101877.41;5046873;28;20037;-77
2023/05/17 07:41:47;;;;;;;10.00;3.53;;;;;;;12.23;100.00;101868.22;5044301;28;20374;-77
2023/05/17 07:44:17;;;;;;;10.75;3.60;;;;;;;12.35;100.00;101877.00;5035623;28;20029;-77
2023/05/17 07:46:47;;;;;;;10.35;3.63;;;;;;;12.50;100.00;101867.81;5035989;28;20121;-76
2023/05/17 07:49:15;;;;;;;8.60;3.38;;;;;;;12.66;100.00;101874.59;5040240;28;20221;-77
2023/05/17 07:51:43;;;;;;;10.32;3.67;;;;;;;12.79;100.00;101874.41;5036451;28;20041;-77
2023/05/17 07:54:22;;;;;;;9.85;3.70;;;;;;;12.95;100.00;101882.00;5020559;28;20056;-77
2023/05/17 07:56:52;;;;;;;10.75;3.85;;;;;;;13.01;100.00;101878.84;5038012;28;20138;-77
2023/05/17 07:59:20;;;;;;;9.75;3.53;;;;;;;13.17;100.00;101874.91;5036268;28;20094;-77
2023/05/17 08:01:48;;;;;;;10.63;3.95;;;;;;;13.21;100.00;101870.22;5039831;28;20040;-77
2023/05/17 08:04:17;;;;;;;12.20;3.72;;;;;;;13.22;100.00;101874.56;5049174;28;20366;-77
2023/05/17 08:06:47;;;;;;;11.88;4.13;;;;;;;13.20;100.00;101873.84;5045334;28;20034;-77
2023/05/17 08:09:15;;;;;;;10.85;4.63;;;;;;;13.22;100.00;101874.56;5051011;28;20060;-77
2023/05/17 08:11:44;;;;;;;13.30;4.55;;;;;;;13.28;100.00;101863.44;5043389;28;20032;-77
2023/05/17 08:14:16;;;;;;;11.48;3.72;;;;;;;13.33;100.00;101866.53;5050633;28;20029;-77
2023/05/17 08:16:46;;;;;;;6.45;2.92;;;;;;;13.35;100.00;101859.28;5037248;28;20036;-77
2023/05/17 08:19:16;;;;;;;10.25;3.60;;;;;;;13.36;100.00;101855.66;5046391;28;20064;-77
2023/05/17 08:21:46;;;;;;;9.05;3.67;;;;;;;13.41;100.00;101860.56;5047394;28;20037;-77
2023/05/17 08:24:16;;;;;;;10.73;3.67;;;;;;;13.49;100.00;101857.31;5043606;28;20037;-77
2023/05/17 08:26:44;;;;;;;12.43;3.70;;;;;;;13.54;100.00;101855.13;5045452;28;20524;-77
2023/05/17 08:29:11;;;;;;;16.85;4.15;;;;;;;13.61;100.00;101843.03;5050902;28;20111;-77
2023/05/17 08:31:39;;;;;;;8.98;3.83;;;;;;;13.69;100.00;101853.00;5044542;28;20428;-77
2023/05/17 08:34:07;;;;;;;8.88;3.50;;;;;;;13.78;100.00;101856.66;5050932;28;20037;-77
2023/05/17 08:36:35;;;;;;;8.45;3.92;;;;;;;13.84;100.00;101853.50;5048674;28;20036;-77
2023/05/17 08:39:03;;;;;;;7.75;3.50;;;;;;;13.96;100.00;101851.63;5060448;28;20504;-77
2023/05/17 08:41:31;;;;;;;13.70;3.55;;;;;;;13.99;100.00;101850.50;5046145;28;20357;-77
2023/05/17 08:44:00;;;;;;;8.73;4.22;;;;;;;14.05;100.00;101857.94;5044544;28;20474;-77
2023/05/17 08:46:30;;;;;;;7.82;3.85;;;;;;;14.11;100.00;101848.59;5050189;28;20067;-77
2023/05/17 08:49:00;;;;;;;8.38;4.13;;;;;;;14.15;100.00;101850.00;5048721;28;20115;-77
2023/05/17 08:51:29;;;;;;;8.93;3.78;;;;;;;14.18;100.00;101852.41;5049015;28;20107;-77
2023/05/17 08:53:57;;;;;;;10.60;4.75;;;;;;;14.26;100.00;101849.94;5043479;28;20370;-77
2023/05/17 08:56:27;;;;;;;12.10;4.30;;;;;;;14.35;100.00;101852.75;5044933;28;20036;-77
2023/05/17 08:58:55;;;;;;;17.27;4.65;;;;;;;14.45;100.00;101855.44;5043558;28;20076;-77
2023/05/17 09:01:24;;;;;;;11.57;4.00;;;;;;;14.46;100.00;101851.81;5046679;28;20067;-77
2023/05/17 09:03:51;;;;;;;10.15;4.35;;;;;;;14.51;100.00;101855.75;5036824;28;20048;-77
2023/05/17 09:06:23;;;;;;;14.95;4.50;;;;;;;14.63;100.00;101850.31;5046476;28;20045;-77
2023/05/17 09:08:53;;;;;;;9.48;4.93;;;;;;;14.66;100.00;101852.69;5045648;28;20446;-77
2023/05/17 09:11:29;;;;;;;9.80;4.70;;;;;;;14.72;100.00;101848.63;5040795;28;20053;-77
2023/05/17 09:14:04;;;;;;;12.73;5.05;;;;;;;14.84;100.00;101850.22;5055515;28;20060;-77
2023/05/17 09:16:36;;;;;;;14.52;4.78;;;;;;;14.94;100.00;101842.25;5048606;28;20040;-77
2023/05/17 09:19:08;;;;;;;10.23;4.35;;;;;;;15.01;100.00;101834.56;5045051;28;20072;-77
2023/05/17 09:21:38;;;;;;;12.48;4.63;;;;;;;15.10;100.00;101836.38;5046228;28;20033;-78
2023/05/17 09:24:08;;;;;;;11.82;4.80;;;;;;;15.18;100.00;101825.03;5040346;28;20033;-78
2023/05/17 09:26:43;;;;;;;12.38;4.90;;;;;;;15.37;100.00;101833.97;5044350;28;20032;-78
2023/05/17 09:29:15;;;;;;;9.75;4.70;;;;;;;15.44;100.00;101829.78;5046307;28;20056;-78
2023/05/17 09:31:45;;;;;;;9.95;4.82;;;;;;;15.46;100.00;101830.50;5046480;28;20100;-77
2023/05/17 09:34:18;;;;;;;11.75;4.47;;;;;;;15.52;100.00;101834.41;4995392;28;20033;-77
2023/05/17 09:36:48;;;;;;;9.77;5.10;;;;;;;15.61;100.00;101832.69;5044945;28;20485;-78
2023/05/17 09:39:18;;;;;;;12.48;5.78;;;;;;;15.68;100.00;101831.16;5057140;28;20029;-77
2023/05/17 09:41:49;;;;;;;11.15;4.07;;;;;;;15.75;100.00;101828.75;5045768;28;20374;-77
2023/05/17 09:44:19;;;;;;;14.90;4.40;;;;;;;15.81;100.00;101827.31;5042524;28;20093;-78
2023/05/17 09:46:47;;;;;;;15.63;4.43;;;;;;;15.81;100.00;101821.97;5045487;28;20033;-78
2023/05/17 09:49:17;;;;;;;15.65;4.40;;;;;;;15.92;100.00;101824.47;5043977;28;20086;-78
2023/05/17 09:51:46;;;;;;;9.23;4.40;;;;;;;15.93;100.00;101820.81;5045137;28;20029;-78
2023/05/17 09:54:14;;;;;;;11.02;4.45;;;;;;;16.05;100.00;101818.00;5043677;28;20116;-77
2023/05/17 09:56:42;;;;;;;13.93;4.85;;;;;;;16.14;100.00;101819.78;5043858;28;20129;-77
2023/05/17 09:59:14;;;;;;;8.75;3.63;;;;;;;16.24;100.00;101817.06;5046056;28;20040;-78
2023/05/17 10:01:44;;;;;;;11.55;4.07;;;;;;;16.31;100.00;101814.66;5041517;28;20087;-78
2023/05/17 10:04:12;;;;;;;10.50;3.97;;;;;;;16.34;100.00;101814.38;5039594;28;20119;-78
2023/05/17 10:06:43;;;;;;;11.98;4.68;;;;;;;16.33;100.00;101807.34;5031831;28;20056;-78
2023/05/17 10:09:14;;;;;;;13.85;4.22;;;;;;;16.41;100.00;101810.09;5052091;28;20052;-78
2023/05/17 10:11:47;;;;;;;10.57;4.93;;;;;;;16.51;100.00;101806.53;5062826;28;20021;-78
2023/05/17 10:14:32;;;;;;;12.63;4.70;;;;;;;16.64;100.00;101811.50;5042779;28;20112;-78
2023/05/17 10:17:02;;;;;;;10.10;4.20;;;;;;;16.62;100.00;101806.31;5048010;28;20527;-78
2023/05/17 10:19:33;;;;;;;14.57;4.70;;;;;;;16.67;100.00;101812.06;5045162;28;20802;-78
2023/05/17 10:22:03;;;;;;;12.80;4.80;;;;;;;16.70;100.00;101805.56;5052309;28;20037;-78
2023/05/17 10:24:36;;;;;;;10.35;4.63;;;;;;;16.78;100.00;101796.78;5050651;28;20127;-77
2023/05/17 10:27:06;;;;;;;11.65;4.53;;;;;;;16.92;100.00;101798.09;5044567;28;20423;-78
2023/05/17 10:29:39;;;;;;;13.77;4.78;;;;;;;16.99;100.00;101799.16;5046354;28;20029;-77
2023/05/17 10:32:12;;;;;;;11.57;4.60;;;;;;;16.92;100.00;101790.91;5047712;28;20473;-78
2023/05/17 10:34:42;;;;;;;12.40;5.00;;;;;;;16.85;100.00;101787.19;4988761;28;20593;-77
2023/05/17 10:37:12;;;;;;;7.50;4.07;;;;;;;16.86;100.00;101795.06;5050193;28;20044;-78
2023/05/17 10:39:45;;;;;;;9.05;4.93;;;;;;;16.79;100.00;101793.97;5044845;28;20032;-78
2023/05/17 10:42:17;;;;;;;13.20;5.13;;;;;;;16.85;100.00;101790.69;5051282;28;20029;-78
2023/05/17 10:44:46;;;;;;;10.57;4.57;;;;;;;16.91;100.00;101788.41;5047225;28;20041;-78
2023/05/17 10:47:15;;;;;;;10.98;5.00;;;;;;;17.04;100.00;101791.50;5049492;28;20086;-78
2023/05/17 10:49:48;;;;;;;16.00;4.60;;;;;;;17.26;100.00;101789.38;5043741;28;20128;-78
2023/05/17 10:52:24;;;;;;;13.27;5.20;;;;;;;17.45;100.00;101791.03;5049143;28;20362;-78
2023/05/17 10:54:54;;;;;;;11.15;5.25;;;;;;;17.63;100.00;101786.63;5060882;28;20043;-78
2023/05/17 10:57:37;;;;;;;12.30;4.40;;;;;;;17.73;100.00;101781.97;5040642;28;20053;-78
2023/05/17 11:00:09;;;;;;;12.85;5.10;;;;;;;17.77;100.00;101778.00;5048564;28;20115;-78
2023/05/17 11:02:42;;;;;;;8.75;4.55;;;;;;;17.81;100.00;101783.84;5049446;28;20024;-78
2023/05/17 11:05:30;;;;;;;10.88;4.75;;;;;;;17.97;100.00;101778.59;5049281;28;20029;-78
2023/05/17 11:08:16;;;;;;;12.18;4.80;;;;;;;17.98;100.00;101782.94;5047603;28;20037;-78
2023/05/17 11:11:11;;;;;;;14.57;5.07;;;;;;;17.92;100.00;101780.06;5046129;28;20032;-78
2023/05/17 11:13:50;;;;;;;15.77;5.57;;;;;;;17.91;100.00;101773.91;5045388;28;20036;-78
2023/05/17 11:16:22;;;;;;;12.73;5.07;;;;;;;17.94;100.00;101770.91;5047444;28;20083;-78
2023/05/17 11:18:56;;;;;;;11.35;4.72;;;;;;;18.05;98.14;101774.25;5047440;28;20806;-78
2023/05/17 11:21:29;;;;;;;8.60;4.45;;;;;;;18.14;97.19;101765.28;5033641;28;20044;-78
2023/05/17 11:24:03;;;;;;;10.93;4.55;;;;;;;18.28;96.81;101771.88;5033121;28;20396;-78
2023/05/17 11:26:45;;;;;;;11.10;4.97;;;;;;;18.30;88.81;101766.38;5031255;28;20044;-78
2023/05/17 11:29:15;;;;;;;10.60;4.03;;;;;;;18.36;92.22;101768.38;5049465;28;20032;-78
2023/05/17 11:31:52;;;;;;;10.15;4.32;;;;;;;18.49;88.34;101765.22;5048617;28;20029;-78